Tiline, KY (42083)

8:39 PM CST on February 01, 2015 (GMT -0600)
Calvert City | Change Station
CLOSE
Current Station
Personal Weather Station
Location: Calvert City, KY
Elevation: 364 ft
Nearby Weather Stations

Elev 364 ft 37.02 °N, 88.33 °W | Updated 1 second ago

Rain
Rain
46.8 °F
Feels Like 43 °F
N
6.9
Wind Variable Wind from West
Gusts 11.4 mph

Today
High -- | Low -- °F
--% Chance of Precip.
Yesterday
High -- | Low -- °F
Precip. -- in
6:56 AM 5:17 PM
Waxing Gibbous, 97% visible
Pressure 29.69 in
Visibility 10.0 miles
Clouds Scattered Clouds 900 ft
Mostly Cloudy 1300 ft
Overcast 1900 ft
Windchill 43 °F
Dew Point 42 °F
Humidity 84%
Rainfall 0.89 in
Snow Depth Not available.
UV 0 out of 12
Pollen .30 out of 12
Air Quality Not available.
Flu Activity Not available.
METAR K5M9 020215Z AUTO 32009G15KT 10SM RA SCT009 BKN013 OVC019 07/06 A2969 RMK AO2 T00650055

More Conditions Fewer Conditions

Pressure 29.69 in
Visibility 10.0 miles
Clouds Scattered Clouds 900 ft
Mostly Cloudy 1300 ft
Overcast 1900 ft
Windchill 43 °F
Dew Point 42 °F
Humidity 84%
Rainfall 0.89 in
Snow Depth Not available.
UV 0 out of 12
Pollen .30 out of 12
Air Quality Not available.
Flu Activity Not available.
METAR K5M9 020215Z AUTO 32009G15KT 10SM RA SCT009 BKN013 OVC019 07/06 A2969 RMK AO2 T00650055

More Conditions Fewer Conditions

10-Day Weather Forecast

Almanac

Astronomy

Feb. 01, 2015 Rise Set
Actual Time
Civil Twilight
Nautical Twilight
Astronomical Twilight
Moon
Length of Visible Light
Length of Day
Tomorrow will be .
, % of the Moon is Illuminated

Today's Extremes

State Highs State Lows

Community

WunderPhotos

Upload Photos

1,792,659 photos uploaded!

WunderBlogs® & News

Nearby

Air Quality

  Air Quality AQ Index Pollutant
Not available.

Snow Depth

Station Depth Elevation

Earthquake Activity

City Distance Mag. Time & Date
Minimum magnitude displayed is 2.5.

Coastal Water Temperatures

Place Temperature

Nearby Weather Stations